createdAt,value
2022-09-15T06:02:45.502Z,20.51
2022-09-15T06:07:48.761Z,22.57
2022-09-15T06:13:15.662Z,25.57
2022-09-15T06:18:18.893Z,28.11
2022-09-15T06:23:22.077Z,30.18
2022-09-15T06:28:25.529Z,32.11
2022-09-15T06:33:28.846Z,32.36
2022-09-15T06:38:32.603Z,31.44
2022-09-15T06:43:36.755Z,32.51
2022-09-15T06:48:48.104Z,33.85
2022-09-15T06:53:54.177Z,33.69
2022-09-15T06:58:58.061Z,33.18
2022-09-15T07:04:10.268Z,34.29
2022-09-15T07:09:14.023Z,35.12
2022-09-15T07:14:17.395Z,35.92
2022-09-15T07:19:20.757Z,35.38
2022-09-15T07:24:23.974Z,35.10
2022-09-15T07:29:27.773Z,35.05
2022-09-15T07:34:34.815Z,35.17
2022-09-15T07:39:37.956Z,35.47
2022-09-15T07:44:41.279Z,35.60
2022-09-15T07:49:44.581Z,35.42
2022-09-15T07:54:47.746Z,35.01
2022-09-15T07:59:50.876Z,35.57
2022-09-15T08:04:54.035Z,36.05
2022-09-15T08:09:57.502Z,35.99
2022-09-15T08:15:00.652Z,35.59
2022-09-15T08:20:04.407Z,35.82
2022-09-15T08:25:11.092Z,35.54
2022-09-15T08:30:14.563Z,34.53
2022-09-15T08:35:19.177Z,31.23
2022-09-15T08:40:46.303Z,28.77
2022-09-15T08:46:01.372Z,27.36
2022-09-15T08:51:11.228Z,26.10
2022-09-15T08:56:19.048Z,25.20
2022-09-15T09:01:59.873Z,24.61
2022-09-15T09:07:14.868Z,26.85
2022-09-15T09:12:56.836Z,28.57
2022-09-15T09:18:00.033Z,27.84
2022-09-15T09:23:09.305Z,26.83
2022-09-15T09:28:28.463Z,25.68
2022-09-15T09:33:38.711Z,25.06
2022-09-15T09:38:45.524Z,24.74
2022-09-15T09:43:59.654Z,24.66
2022-09-15T09:49:47.472Z,23.97
2022-09-15T09:55:05.553Z,22.91
2022-09-15T10:00:34.752Z,22.26
2022-09-15T10:05:38.227Z,21.55
2022-09-15T10:10:53.531Z,20.88
2022-09-15T10:16:02.747Z,20.56
2022-09-15T10:21:10.002Z,20.63
2022-09-15T10:26:16.288Z,20.61
2022-09-15T10:31:33.323Z,20.18
2022-09-15T10:36:37.791Z,19.90
2022-09-15T10:42:09.270Z,19.87
2022-09-15T10:47:44.112Z,19.68
2022-09-15T10:52:59.368Z,19.47
2022-09-15T10:58:12.753Z,19.29
2022-09-15T11:03:51.211Z,19.55
2022-09-15T11:09:03.948Z,20.16
2022-09-15T11:14:12.935Z,20.31
2022-09-15T11:19:42.846Z,20.03
2022-09-15T11:24:56.034Z,19.79
2022-09-15T11:30:24.029Z,19.95
2022-09-15T11:35:31.894Z,20.31
2022-09-15T11:40:45.104Z,20.25
2022-09-15T11:45:53.930Z,20.22
2022-09-15T11:51:01.971Z,20.27
2022-09-15T11:56:21.078Z,20.44
2022-09-15T12:01:52.955Z,20.72
2022-09-15T12:12:11.615Z,20.90
2022-09-15T12:17:23.703Z,20.83
2022-09-15T12:22:43.810Z,20.77
2022-09-15T12:28:24.508Z,20.79
2022-09-15T12:33:43.769Z,20.66
2022-09-15T12:38:49.872Z,20.56
2022-09-15T12:43:57.806Z,20.58
2022-09-15T12:49:04.218Z,20.54
2022-09-15T12:54:09.168Z,20.45
2022-09-15T12:59:15.379Z,20.29
2022-09-15T13:04:51.361Z,20.17
2022-09-15T13:10:17.340Z,20.03
2022-09-15T13:15:22.997Z,20.01
2022-09-15T13:20:34.618Z,20.12
2022-09-15T13:25:41.033Z,20.20
2022-09-15T13:31:01.174Z,20.16
2022-09-15T13:42:19.709Z,19.65
2022-09-15T13:47:45.676Z,19.63
2022-09-15T13:53:01.669Z,19.49
2022-09-15T14:03:50.848Z,19.24
2022-09-15T14:08:59.162Z,19.18
2022-09-15T14:14:03.311Z,19.17
2022-09-15T14:19:39.960Z,19.24
2022-09-15T14:24:43.733Z,19.06
2022-09-15T14:29:58.057Z,18.62
2022-09-15T14:35:06.740Z,18.13
2022-09-15T14:40:28.232Z,17.72
2022-09-15T14:51:13.678Z,17.14
